• Join FlightAware (Why Join?)
  • Login
  • US Flag 
12:33AM EDT


 

Airport Tracker/Info


-or-


 

Live Flight TrackerFlight Track Log ✈ EJA829P ✈ 11-Nov-2013 ✈ KRIC - KIAD

Flight Track Log - Related Links

Times and Time Zones

All times are in EST time to prevent confusion due to time zone crossing. See the EJA829P flight status page for this flight to view local times or setup timezone preferences in your user account.

Time Position Orientation Groundspeed Altitude Reporting Facility
EST Latitude Longitude Course Direction KTS MPH feet Rate Location/Type
02:15PM 37.4833 -77.3333 231° Southwest 181 208 2,100  Level Potomac TRACON
02:16PM 37.4444 -77.3942 231° Southwest 195 224 6,600 3,060 Climbing Washington Center
02:17PM 37.5000 -77.4319 332° Northwest 139 160 9,100 2,220 Climbing Washington Center
02:18PM 37.5706 -77.4522 347° North 169 194 11,000 900 Climbing Washington Center
02:19PM 37.6558 -77.4803 345° North 244 281 11,000  Level Washington Center
02:20PM 37.7389 -77.5061 346° North 288 331 11,000  Level Washington Center
02:21PM 37.8239 -77.5344 345° North 309 356 11,000  Level Washington Center
02:22PM 37.9069 -77.5603 346° North 309 356 11,000  Level Washington Center
02:23PM 37.9925 -77.5547 North 309 356 11,000 -60 Level Washington Center
02:24PM 38.0850 -77.5044 23° Northeast 306 352 10,900 -300 Descending Washington Center
02:25PM 38.1628 -77.4589 25° Northeast 316 364 10,400 -540 Descending Washington Center
02:26PM 38.2342 -77.4369 14° North 289 333 9,900 -300 Descending Washington Center
02:27PM 38.3075 -77.4200 10° North 263 303 9,900 -540 Level Washington Center
02:28PM 38.3828 -77.4061 North 263 303 8,900 -1,260 Descending Washington Center
02:29PM 38.4581 -77.3919 North 263 303 7,400 -1,500 Descending Washington Center
02:30PM 38.5333 -77.3753 10° North 268 308 5,900 -1,320 Descending Washington Center
02:31PM 38.6064 -77.3636 North 268 308 4,900 -540 Descending Washington Center
02:32PM 38.6794 -77.3628 North 268 308 4,900 -420 Level Washington Center
02:34PM 38.7667 -77.3500 North 261 300 4,100 -480 Descending Potomac TRACON
02:34PM 38.8333 -77.3500 360° North 259 298 4,000 -60 Descending Potomac TRACON
02:35PM 38.9000 -77.3500 360° North 256 295 4,000 -480 Level Potomac TRACON
02:36PM 38.9833 -77.3500 360° North 266 306 3,100 -540 Descending Potomac TRACON
02:37PM 39.0500 -77.3500 360° North 258 297 3,000 -60 Descending Potomac TRACON
02:38PM 39.1167 -77.3667 349° North 242 278 3,000 -180 Level Potomac TRACON
02:39PM 39.0833 -77.4167 229° Southwest 183 211 2,700 -600 Descending Potomac TRACON
02:40PM 39.0333 -77.4333 195° South 159 183 1,900 -900 Descending Potomac TRACON
02:41PM 39.0000 -77.4333 180° South 135 155 1,000 -720 Descending Potomac TRACON
02:42PM 38.9667 -77.4333 180° South 109 125 600 -480 Descending Potomac TRACON
02:44PM 38.9474 -77.4599 195° South  Level Estimated
02:51PM 38.9474 -77.4599 195° South  Level Estimated
02:52PM 38.9474 -77.4599 195° South  Level Estimated